Aviation Digital Data Service (ADDS)

Output produced by METARs form (1006 UTC 19 January 2019)
found at http://www.aviationweather.gov/metar/data/
 
EBBE 190955Z AUTO 12006KT 9999 NCD M00/M04 Q1015 BLU
EBBR 190950Z 12005KT 090V150 CAVOK M00/M03 Q1015 NOSIG
TAF EBBR 190500Z 1906/2012 14007KT CAVOK 
     PROB30 
     TEMPO 1921/2008 4500 BR
       
EBCI 190950Z 13007KT CAVOK M00/M04 Q1014 NOSIG
TAF EBCI 190500Z 1906/2012 13007KT CAVOK 
     PROB30 
     TEMPO 2004/2008 3500 BR -SN BKN004
       
EBCV 190955Z AUTO 13008KT 9999 NCD M00/M03 Q1015 BLU
TAF EBCV 190841Z 1910/1919 13006KT 9999 SCT110 
     BECMG 1914/1916 BKN090 BY EBWM
       
EBAW 190950Z 13006KT CAVOK M00/M03 Q1016 NOSIG
TAF EBAW 190800Z 1909/1918 14006KT CAVOK
       
EBFS 190955Z AUTO 14009KT 9999 NCD M02/M04 Q1014 BLU
TAF EBFS 190841Z 1910/1919 14009KT 9999 SCT120 
     BECMG 1916/1918 13007KT BKN120
       
EBBL 190955Z AUTO 10003KT 9999 BKN170/// M01/M02 Q1017 BLU
EBFN 190955Z AUTO 14010KT 9999 BKN180/// BKN210/// 00/M03 Q1014 BLU
TAF EBFN 190841Z 1910/1919 14011KT 9999 FEW025 SCT105 
     BECMG 1917/1919 12010KT
       
EBLG 190950Z 14007KT 110V170 CAVOK 00/M05 Q1015 NOSIG
TAF EBLG 190500Z 1906/2012 14007KT CAVOK
       
EBOS 190950Z 14007KT 9000 NSC M01/M03 Q1014 NOSIG
TAF EBOS 190500Z 1906/2012 14010KT 8000 NSC 
     PROB30 
     TEMPO 1906/1908 3500 BR 
     TEMPO 1922/2008 BKN013 
     PROB30 
     TEMPO 2002/2007 4500 BR BKN009 
     BECMG 2008/2010 08005KT